Time;durP1;ratioP1;P1;durP2;ratioP2;P2;SDS_P1;SDS_P2;PMS_P1;PMS_P2;Temp;Humidity;BMP_temperature;BMP_pressure;BME280_temperature;BME280_humidity;BME280_pressure;Samples;Min_cycle;Max_cycle;Signal;HPM_P1;HPM_P2
2022/05/10 00:00:16;;;;;;;23.48;17.70;;;;;;;12.26;81.54;101993.94;4843263;29;20030;-81
2022/05/10 00:02:45;;;;;;;22.75;17.85;;;;;;;12.51;81.54;102040.16;4842888;29;20030;-79
2022/05/10 00:05:10;;;;;;;24.40;18.15;;;;;;;12.48;81.82;102037.72;4842768;29;20086;-88
2022/05/10 00:07:37;;;;;;;23.52;19.02;;;;;;;12.14;82.16;101991.16;4842974;29;20026;-90
2022/05/10 00:10:06;;;;;;;23.15;19.27;;;;;;;12.20;82.38;102001.22;4843051;29;20037;-86
2022/05/10 00:12:31;;;;;;;24.35;18.17;;;;;;;12.37;82.33;102031.41;4842839;29;20483;-83
2022/05/10 00:14:57;;;;;;;22.88;18.25;;;;;;;12.27;82.30;102026.69;4842724;29;20034;-79
2022/05/10 00:17:28;;;;;;;31.10;20.33;;;;;;;12.13;81.91;101999.84;4842601;29;20050;-90
2022/05/10 00:19:54;;;;;;;23.42;19.83;;;;;;;12.30;82.87;102023.13;4842674;29;20041;-89
2022/05/10 00:22:20;;;;;;;23.88;19.88;;;;;;;12.24;83.18;102018.25;4842766;29;20034;-91
2022/05/10 00:24:48;;;;;;;23.10;19.15;;;;;;;12.21;83.30;102021.84;4842351;29;20037;-90
2022/05/10 00:27:13;;;;;;;23.27;18.55;;;;;;;12.16;83.61;102015.22;4842865;29;20038;-89
2022/05/10 00:29:38;;;;;;;22.33;18.20;;;;;;;11.71;83.71;101946.72;4842735;29;20040;-90
2022/05/10 00:32:04;;;;;;;21.85;18.60;;;;;;;12.09;83.45;102017.28;4842986;29;20030;-89
2022/05/10 00:34:30;;;;;;;22.08;17.75;;;;;;;12.04;84.07;102019.25;4842400;29;20033;-89
2022/05/10 00:36:56;;;;;;;23.05;18.45;;;;;;;11.72;84.11;101966.50;4842450;29;20037;-91
2022/05/10 00:39:21;;;;;;;25.35;18.10;;;;;;;11.98;83.93;102014.38;4846549;24;20066;-90
2022/05/10 00:42:27;;;;;;;23.05;18.60;;;;;;;11.95;83.73;102014.53;4824536;29;20034;-91
2022/05/10 00:45:03;;;;;;;21.45;17.65;;;;;;;11.83;83.97;101997.88;4807879;29;20033;-88
2022/05/10 00:47:44;;;;;;;22.73;18.70;;;;;;;11.83;83.98;101997.03;4824285;29;20034;-88
2022/05/10 00:50:17;;;;;;;24.38;18.77;;;;;;;11.61;84.28;101966.19;4824354;29;20035;-90
2022/05/10 00:52:53;;;;;;;26.17;19.60;;;;;;;11.81;84.53;102004.88;4824583;29;20035;-86
2022/05/10 00:55:26;;;;;;;26.58;19.92;;;;;;;11.78;84.70;102002.41;4824959;29;20071;-87
2022/05/10 00:57:56;;;;;;;23.58;19.60;;;;;;;11.75;84.74;101998.22;4824915;29;20502;-88
2022/05/10 01:00:27;;;;;;;24.25;20.67;;;;;;;11.76;84.80;101996.47;4808779;29;20570;-89
2022/05/10 01:02:52;;;;;;;24.88;21.25;;;;;;;11.71;84.79;102001.88;4824769;29;20478;-88
2022/05/10 01:05:32;;;;;;;25.73;21.02;;;;;;;11.71;84.87;101991.53;4824029;29;20118;-90
2022/05/10 01:08:21;;;;;;;25.23;21.10;;;;;;;11.69;84.93;101988.16;4824205;29;20110;-89
2022/05/10 01:11:00;;;;;;;27.15;21.55;;;;;;;11.52;85.27;101956.28;4824051;29;20550;-90
2022/05/10 01:13:31;;;;;;;26.40;21.92;;;;;;;11.28;85.38;101927.25;4824203;29;20117;-87
2022/05/10 01:16:19;;;;;;;29.13;21.67;;;;;;;11.63;85.17;101978.13;4842298;24;20541;-90
2022/05/10 01:18:48;;;;;;;26.08;21.23;;;;;;;11.59;85.79;101975.75;4842221;29;20038;-89
2022/05/10 01:21:22;;;;;;;28.30;20.65;;;;;;;11.58;85.54;101977.50;4841967;29;20041;-90
2022/05/10 01:24:04;;;;;;;25.52;21.17;;;;;;;11.31;85.71;101937.47;4842279;29;20086;-90
2022/05/10 01:27:04;;;;;;;24.60;21.95;;;;;;;11.54;85.52;101975.16;4842112;29;20038;-89
2022/05/10 01:29:50;;;;;;;25.08;22.23;;;;;;;11.51;85.43;101976.16;4841914;29;20061;-89
2022/05/10 01:35:19;;;;;;;29.70;22.15;;;;;;;11.40;86.12;101966.28;4842441;29;20037;-88
2022/05/10 01:37:55;;;;;;;29.40;22.27;;;;;;;10.99;86.30;101892.47;4844999;29;20038;-89
2022/05/10 01:40:32;;;;;;;26.73;22.35;;;;;;;11.25;86.45;101928.25;4845693;29;20034;-88
2022/05/10 01:43:08;;;;;;;30.30;24.27;;;;;;;11.06;86.61;101899.84;4845739;29;20390;-90
2022/05/10 01:45:46;;;;;;;31.30;24.25;;;;;;;11.29;86.96;101949.63;4845511;29;20037;-87
2022/05/10 01:48:17;;;;;;;27.83;22.38;;;;;;;11.30;86.87;101946.13;4845427;29;20030;-91
2022/05/10 01:50:42;;;;;;;28.05;22.85;;;;;;;11.26;87.32;101936.84;4845219;29;20042;-91
2022/05/10 01:53:24;;;;;;;29.63;24.60;;;;;;;10.99;87.30;101895.88;4845419;29;20033;-91
2022/05/10 01:56:14;;;;;;;29.17;22.88;;;;;;;11.20;87.18;101931.03;4845445;29;20529;-87
2022/05/10 01:58:42;;;;;;;31.15;23.58;;;;;;;11.16;87.62;101934.69;4845151;29;20505;-89
2022/05/10 02:01:13;;;;;;;29.42;24.75;;;;;;;11.14;87.52;101935.69;4845136;29;20439;-87
2022/05/10 02:03:50;;;;;;;28.25;23.63;;;;;;;11.16;87.68;101936.44;4845297;29;20490;-90
2022/05/10 02:06:16;;;;;;;30.58;24.35;;;;;;;11.17;87.71;101938.13;4845081;29;20033;-85
2022/05/10 02:09:04;;;;;;;33.03;26.20;;;;;;;11.18;87.67;101940.63;4845131;29;20041;-91
2022/05/10 02:11:31;;;;;;;30.70;24.58;;;;;;;10.92;87.97;101891.94;4844948;29;20118;-90
2022/05/10 02:14:06;;;;;;;29.42;25.13;;;;;;;11.22;88.00;101927.56;4828775;29;20058;-88
2022/05/10 02:16:49;;;;;;;31.50;25.83;;;;;;;11.23;87.92;101924.91;4844754;29;20054;-90
2022/05/10 02:19:32;;;;;;;30.48;25.67;;;;;;;11.21;88.04;101924.16;4844767;29;20026;-90
2022/05/10 02:22:05;;;;;;;36.60;27.50;;;;;;;10.87;88.33;101860.28;4844481;29;20042;-89
2022/05/10 02:24:43;;;;;;;34.75;25.92;;;;;;;11.25;88.12;101912.75;4844661;29;20069;-87
2022/05/10 02:27:22;;;;;;;33.17;26.55;;;;;;;11.07;88.44;101875.69;4844629;29;20090;-87
2022/05/10 02:29:57;;;;;;;32.90;27.30;;;;;;;10.99;88.68;101851.94;4844597;29;20497;-83
2022/05/10 02:35:15;;;;;;;40.15;28.20;;;;;;;11.39;88.46;101897.38;4844920;29;20045;-82
2022/05/10 02:37:40;;;;;;;32.13;27.77;;;;;;;11.41;88.53;101897.31;4844285;29;20030;-90
2022/05/10 02:40:08;;;;;;;35.15;27.42;;;;;;;11.27;88.49;101869.53;4844572;29;20069;-90
2022/05/10 02:42:33;;;;;;;33.75;27.05;;;;;;;11.37;88.64;101882.84;4844410;29;20067;-89
2022/05/10 02:45:00;;;;;;;31.83;27.58;;;;;;;11.25;88.85;101866.19;4844300;29;20030;-89
2022/05/10 02:47:33;;;;;;;37.08;28.02;;;;;;;11.40;88.83;101880.09;4844166;29;20117;-90
2022/05/10 02:49:59;;;;;;;36.10;28.15;;;;;;;11.25;88.58;101860.19;4844399;29;20105;-90
2022/05/10 02:52:25;;;;;;;35.03;28.92;;;;;;;11.16;88.32;101835.63;4844106;29;20041;-90
2022/05/10 02:55:00;;;;;;;36.50;28.33;;;;;;;11.30;88.76;101859.03;4844464;29;20494;-90
2022/05/10 02:57:28;;;;;;;34.50;28.42;;;;;;;11.46;88.78;101879.81;4842775;29;20079;-80
2022/05/10 02:59:58;;;;;;;36.92;28.83;;;;;;;11.39;88.70;101868.09;4844212;29;20082;-90
2022/05/10 03:02:29;;;;;;;37.97;28.75;;;;;;;11.45;88.48;101880.72;4844028;29;20030;-84
2022/05/10 03:04:57;;;;;;;37.03;28.80;;;;;;;11.18;88.66;101826.03;4844152;29;20041;-89
2022/05/10 03:07:24;;;;;;;35.00;28.58;;;;;;;11.46;88.74;101880.66;4843846;29;20814;-90
2022/05/10 03:09:50;;;;;;;34.15;27.83;;;;;;;11.51;88.87;101872.69;4844090;29;20033;-90
2022/05/10 03:12:15;;;;;;;40.83;28.52;;;;;;;11.27;88.45;101829.91;4843886;29;20052;-81
2022/05/10 03:14:41;;;;;;;38.38;29.70;;;;;;;11.40;89.00;101852.50;4844006;29;20150;-83
2022/05/10 03:17:10;;;;;;;40.60;29.02;;;;;;;11.33;88.99;101825.28;4844066;29;20045;-85
2022/05/10 03:19:36;;;;;;;37.17;30.13;;;;;;;11.31;88.89;101821.13;4844005;29;20085;-86
2022/05/10 03:22:02;;;;;;;36.65;29.45;;;;;;;11.64;89.25;101863.38;4843853;29;20499;-90
2022/05/10 03:24:27;;;;;;;38.30;28.98;;;;;;;11.66;88.95;101864.13;4842420;29;20117;-90
2022/05/10 03:26:53;;;;;;;38.38;29.95;;;;;;;11.64;89.01;101858.19;4843797;29;20042;-80
2022/05/10 03:29:19;;;;;;;39.25;29.58;;;;;;;11.67;88.89;101864.97;4843953;29;20060;-87
2022/05/10 03:31:45;;;;;;;35.83;29.10;;;;;;;11.70;88.79;101863.06;4843853;29;20030;-91
2022/05/10 03:36:57;;;;;;;35.10;28.02;;;;;;;11.36;88.54;101791.50;4805119;29;20042;-90
2022/05/10 03:39:22;;;;;;;39.30;30.48;;;;;;;11.74;89.09;101855.97;4804675;29;20046;-89
2022/05/10 03:41:48;;;;;;;39.15;30.48;;;;;;;11.75;88.94;101855.06;4804985;29;20042;-91
2022/05/10 03:44:13;;;;;;;36.78;29.05;;;;;;;11.71;89.33;101849.22;4805122;29;20095;-90
2022/05/10 03:46:38;;;;;;;36.40;30.00;;;;;;;11.55;89.43;101822.44;4805533;29;20038;-90
2022/05/10 03:49:04;;;;;;;35.63;28.90;;;;;;;11.62;89.46;101825.56;4805703;29;20059;-90
2022/05/10 03:51:29;;;;;;;37.70;29.30;;;;;;;11.57;89.53;101820.59;4805012;29;20118;-90
2022/05/10 03:53:55;;;;;;;37.88;29.88;;;;;;;11.35;89.79;101782.06;4804615;29;20556;-91
2022/05/10 03:56:21;;;;;;;37.55;27.75;;;;;;;11.76;89.44;101841.19;4804854;29;20113;-89
2022/05/10 03:58:46;;;;;;;39.25;29.90;;;;;;;11.56;89.33;101816.34;4803998;29;20047;-90
2022/05/10 04:01:12;;;;;;;35.67;28.80;;;;;;;11.38;89.88;101779.31;4804774;29;20458;-90
2022/05/10 04:03:40;;;;;;;41.05;30.50;;;;;;;11.64;89.59;101816.81;4804916;29;20035;-90
2022/05/10 04:06:05;;;;;;;39.17;31.20;;;;;;;11.84;89.33;101838.25;4804712;29;20038;-89
2022/05/10 04:08:31;;;;;;;41.53;31.23;;;;;;;11.87;89.46;101838.09;4789337;29;20563;-90
2022/05/10 04:11:04;;;;;;;43.45;30.83;;;;;;;11.91;89.38;101837.03;4804596;29;20043;-89
2022/05/10 04:13:31;;;;;;;41.25;31.05;;;;;;;11.96;89.18;101829.84;4815236;29;20042;-88
2022/05/10 04:15:58;;;;;;;41.78;30.58;;;;;;;11.51;87.93;101743.34;4842535;29;20053;-90
2022/05/10 04:18:23;;;;;;;42.95;31.30;;;;;;;12.13;88.17;101834.13;4849631;24;20398;-90
2022/05/10 04:20:49;;;;;;;44.05;31.90;;;;;;;12.16;88.92;101828.78;4823935;29;20038;-88
2022/05/10 04:23:14;;;;;;;40.65;31.40;;;;;;;11.89;88.58;101787.06;4824753;29;20428;-91
2022/05/10 04:25:39;;;;;;;36.83;30.23;;;;;;;12.03;88.02;101794.94;4824125;29;20031;-89
2022/05/10 04:28:06;;;;;;;39.10;30.08;;;;;;;12.30;88.48;101826.31;4824637;29;20030;-87
2022/05/10 04:30:32;;;;;;;35.50;29.92;;;;;;;12.37;87.84;101832.78;4824435;29;20033;-88
2022/05/10 04:32:57;;;;;;;37.80;28.70;;;;;;;12.32;86.56;101804.56;4824513;29;20117;-90
2022/05/10 04:35:22;;;;;;;37.88;28.42;;;;;;;12.39;86.96;101805.06;4824577;29;20483;-90
2022/05/10 04:37:48;;;;;;;37.42;27.98;;;;;;;12.57;86.75;101818.75;4824593;29;20075;-90
2022/05/10 04:42:59;;;;;;;33.58;26.83;;;;;;;12.76;85.74;101808.19;4824617;29;20113;-90
2022/05/10 04:45:25;;;;;;;36.78;28.23;;;;;;;12.71;85.31;101792.91;4824602;29;20526;-90
2022/05/10 04:47:52;;;;;;;38.25;27.83;;;;;;;12.96;84.19;101814.84;4824296;29;20151;-88
2022/05/10 04:50:18;;;;;;;41.55;26.45;;;;;;;12.82;84.13;101774.16;4824340;29;20066;-81
2022/05/10 04:52:43;;;;;;;37.40;25.42;;;;;;;13.00;83.46;101788.66;4808034;29;20054;-90
2022/05/10 04:55:10;;;;;;;34.13;24.98;;;;;;;13.19;82.70;101817.81;4824043;29;20054;-89
2022/05/10 04:57:37;;;;;;;34.10;25.00;;;;;;;13.29;81.77;101812.09;4824054;29;20037;-80
2022/05/10 05:00:04;;;;;;;32.63;24.42;;;;;;;13.36;81.50;101810.78;4824347;29;20125;-90
2022/05/10 05:02:29;;;;;;;31.27;23.52;;;;;;;13.24;80.61;101773.44;4824198;29;20031;-81
2022/05/10 05:04:55;;;;;;;36.55;24.05;;;;;;;13.37;79.26;101768.34;4824325;29;20372;-81
2022/05/10 05:07:20;;;;;;;36.25;24.98;;;;;;;13.74;79.17;101816.28;4824270;29;20038;-89
2022/05/10 05:09:48;;;;;;;39.38;24.80;;;;;;;13.72;78.82;101803.41;4824332;29;20073;-89
2022/05/10 05:12:13;;;;;;;34.80;23.88;;;;;;;13.72;78.64;101785.25;4811265;29;20049;-84
2022/05/10 05:14:38;;;;;;;40.38;24.80;;;;;;;13.77;78.16;101783.22;4828578;29;20472;-88
2022/05/10 05:17:04;;;;;;;38.30;25.75;;;;;;;14.07;77.44;101818.63;4828106;29;20038;-89
2022/05/10 05:19:29;;;;;;;38.92;23.38;;;;;;;14.13;76.88;101810.41;4827449;29;20461;-91
2022/05/10 05:21:55;;;;;;;37.45;24.73;;;;;;;13.80;76.97;101751.03;4827701;29;20429;-86
2022/05/10 05:24:20;;;;;;;36.67;24.60;;;;;;;14.12;77.11;101803.56;4827569;29;20044;-90
2022/05/10 05:26:47;;;;;;;48.15;25.13;;;;;;;13.89;76.85;101755.66;4825838;29;20064;-93
2022/05/10 05:29:12;;;;;;;38.35;25.90;;;;;;;14.31;76.35;101818.84;4827291;29;20030;-82
2022/05/10 05:31:38;;;;;;;33.35;23.60;;;;;;;14.37;76.55;101818.47;4835729;24;20042;-92
2022/05/10 05:34:04;;;;;;;35.30;23.23;;;;;;;14.47;75.65;101819.56;4846134;29;20045;-83
2022/05/10 05:36:29;;;;;;;31.45;23.63;;;;;;;14.53;76.06;101798.38;4845489;29;20144;-87
2022/05/10 05:38:54;;;;;;;34.65;24.35;;;;;;;14.72;76.35;101810.19;4845592;29;20079;-90
2022/05/10 05:41:20;;;;;;;33.60;23.55;;;;;;;14.70;74.94;101786.06;4845518;29;20111;-92
2022/05/10 05:43:46;;;;;;;33.65;22.73;;;;;;;14.89;73.46;101789.13;4845357;29;20046;-86
2022/05/10 05:46:11;;;;;;;33.10;24.30;;;;;;;15.16;74.17;101813.31;4845467;29;20034;-92
2022/05/10 05:48:37;;;;;;;32.92;24.83;;;;;;;15.31;73.70;101805.41;4845533;29;20036;-85
2022/05/10 05:51:03;;;;;;;31.27;22.88;;;;;;;15.10;72.16;101751.28;4845564;29;20033;-88
2022/05/10 05:53:28;;;;;;;31.77;23.58;;;;;;;15.42;72.53;101795.09;4845342;29;20375;-88
2022/05/10 05:56:03;;;;;;;31.70;22.35;;;;;;;15.35;71.26;101760.06;4845119;29;20041;-90
2022/05/10 05:58:28;;;;;;;32.25;22.55;;;;;;;15.77;70.71;101808.34;4845255;29;20133;-77
2022/05/10 06:00:54;;;;;;;32.65;22.63;;;;;;;15.90;70.49;101788.31;4845258;29;20128;-81
2022/05/10 06:03:19;;;;;;;30.33;21.55;;;;;;;16.15;69.69;101789.22;4846572;29;20029;-81
2022/05/10 06:05:44;;;;;;;30.10;20.90;;;;;;;16.23;69.31;101769.50;4845672;29;20386;-91
2022/05/10 06:08:11;;;;;;;30.05;21.40;;;;;;;16.51;68.01;101788.31;4828657;29;20054;-87
2022/05/10 06:10:36;;;;;;;26.08;20.65;;;;;;;16.47;68.47;101763.44;4845418;29;20078;-83
2022/05/10 06:13:03;;;;;;;32.08;19.83;;;;;;;16.73;67.11;101785.03;4845463;29;20034;-79
2022/05/10 06:15:30;;;;;;;28.85;19.77;;;;;;;16.78;67.38;101777.69;4828614;29;20485;-89
2022/05/10 06:17:56;;;;;;;26.17;18.63;;;;;;;16.94;66.54;101774.78;4845374;29;20090;-92
2022/05/10 06:20:24;;;;;;;25.38;18.20;;;;;;;17.23;66.01;101802.13;4844971;29;20038;-77
2022/05/10 06:22:49;;;;;;;25.55;17.67;;;;;;;17.38;65.34;101789.69;4844006;29;20033;-87
2022/05/10 06:25:19;;;;;;;22.38;17.65;;;;;;;17.51;64.44;101794.81;4843549;29;20041;-84
2022/05/10 06:27:49;;;;;;;22.30;17.20;;;;;;;17.43;64.69;101770.13;4845516;29;20478;-85
2022/05/10 06:30:15;;;;;;;23.25;17.15;;;;;;;17.65;64.21;101786.72;4845394;29;20034;-79
2022/05/10 06:32:41;;;;;;;21.42;15.05;;;;;;;17.68;64.10;101781.25;4844626;29;20050;-78
2022/05/10 06:35:07;;;;;;;18.88;16.08;;;;;;;17.62;64.08;101766.91;4845122;29;20391;-80
2022/05/10 06:40:17;;;;;;;19.10;14.98;;;;;;;17.92;63.19;101774.16;4844762;29;20098;-87
2022/05/10 06:42:43;;;;;;;19.48;13.98;;;;;;;18.00;62.71;101766.56;4844282;29;20034;-82
2022/05/10 06:45:14;;;;;;;17.25;14.50;;;;;;;18.21;62.89;101777.06;4845133;29;20082;-86
2022/05/10 06:47:42;;;;;;;17.30;13.90;;;;;;;18.38;62.51;101767.84;4844881;29;20117;-86
2022/05/10 06:50:13;;;;;;;16.08;12.82;;;;;;;18.70;61.61;101769.69;4846244;29;20030;-86
2022/05/10 06:52:40;;;;;;;17.50;12.93;;;;;;;19.08;61.23;101774.34;4844921;29;20052;-85
2022/05/10 06:55:07;;;;;;;17.52;13.02;;;;;;;19.23;58.67;101744.25;4844147;29;20033;-82
2022/05/10 06:57:32;;;;;;;14.63;11.52;;;;;;;19.58;58.09;101769.25;4843844;29;20030;-80
2022/05/10 06:59:58;;;;;;;13.95;11.80;;;;;;;19.67;58.17;101739.63;4844092;29;20026;-83
2022/05/10 07:02:26;;;;;;;17.58;11.90;;;;;;;20.10;56.83;101752.41;4843950;29;20080;-83
2022/05/10 07:04:52;;;;;;;13.60;11.02;;;;;;;20.11;57.31;101733.09;4843972;29;20455;-86
2022/05/10 07:07:18;;;;;;;15.60;11.73;;;;;;;20.40;57.19;101755.88;4844086;29;20075;-84
2022/05/10 07:15:58;;;;;;;15.02;10.95;;;;;;;21.50;53.61;101695.81;4645745;27;20055;-91
2022/05/10 07:20:54;;;;;;;15.80;10.90;;;;;;;22.08;50.17;101691.03;4802101;24;20678;-85
2022/05/10 07:23:29;;;;;;;13.75;10.65;;;;;;;22.49;49.89;101744.00;4806773;29;20039;-86
2022/05/10 07:25:58;;;;;;;14.05;10.48;;;;;;;22.40;49.58;101687.84;4791496;29;20125;-89
2022/05/10 07:28:24;;;;;;;13.00;10.20;;;;;;;22.23;48.72;101655.34;4806885;29;20027;-86
2022/05/10 07:30:50;;;;;;;16.38;10.32;;;;;;;22.87;49.12;101734.94;4806678;29;20390;-82
2022/05/10 07:33:19;;;;;;;17.13;11.00;;;;;;;22.87;49.00;101741.03;4806668;29;20045;-83
2022/05/10 07:38:29;;;;;;;13.43;9.77;;;;;;;22.92;49.08;101718.69;4806454;29;20083;-84
2022/05/10 07:40:55;;;;;;;12.50;9.25;;;;;;;23.02;47.89;101730.78;4806449;29;20027;-88
2022/05/10 07:43:23;;;;;;;14.30;9.63;;;;;;;22.89;48.39;101725.91;4806808;29;20164;-86
2022/05/10 07:46:04;;;;;;;15.52;9.75;;;;;;;22.82;49.43;101701.16;4806654;29;20073;-86
2022/05/10 07:48:30;;;;;;;11.57;9.10;;;;;;;22.73;47.85;101732.88;4806586;29;20043;-86
2022/05/10 07:50:56;;;;;;;14.20;9.15;;;;;;;22.54;48.08;101725.97;4806463;29;20476;-87
2022/05/10 07:53:24;;;;;;;13.75;9.65;;;;;;;22.46;49.45;101710.94;4806420;29;20039;-84
2022/05/10 07:55:50;;;;;;;15.32;9.50;;;;;;;22.40;49.15;101718.59;4806143;29;20494;-87
2022/05/10 07:58:18;;;;;;;12.75;10.05;;;;;;;22.02;49.14;101667.94;4806258;29;20023;-83
2022/05/10 08:00:44;;;;;;;16.80;10.07;;;;;;;22.38;49.36;101716.13;4790370;29;20027;-84
2022/05/10 08:03:12;;;;;;;11.90;9.32;;;;;;;22.14;49.37;101671.22;4806467;29;20498;-83
2022/05/10 08:05:38;;;;;;;16.65;9.57;;;;;;;22.39;49.82;101720.41;4790014;29;20066;-87
2022/05/10 08:08:07;;;;;;;15.48;9.75;;;;;;;21.54;49.62;101605.22;4790224;29;20126;-84
2022/05/10 08:10:54;;;;;;;12.32;8.60;;;;;;;22.21;50.74;101723.06;4790045;29;20034;-86
2022/05/10 08:13:34;;;;;;;11.18;9.60;;;;;;;21.44;50.33;101610.53;4806199;29;20062;-85
2022/05/10 08:16:11;;;;;;;12.50;8.70;;;;;;;21.29;50.72;101578.66;4790237;29;20091;-87
2022/05/10 08:18:49;;;;;;;13.93;9.18;;;;;;;21.00;50.93;101551.72;4806009;29;20031;-85
2022/05/10 08:21:15;;;;;;;12.45;9.20;;;;;;;21.67;50.12;101668.75;4806203;29;20047;-87
2022/05/10 08:24:15;;;;;;;13.77;8.98;;;;;;;21.90;51.38;101717.28;4805697;29;20030;-85
2022/05/10 08:26:49;;;;;;;17.27;9.90;;;;;;;20.46;51.07;101504.31;4805515;29;20501;-88
2022/05/10 08:29:15;;;;;;;11.38;8.52;;;;;;;20.55;51.62;101539.34;4789821;29;20034;-88
2022/05/10 08:31:41;;;;;;;11.30;8.07;;;;;;;20.86;52.63;101602.94;4805867;29;20395;-86
2022/05/10 08:34:15;;;;;;;13.63;8.07;;;;;;;20.56;51.62;101562.03;4805772;29;20045;-86
2022/05/10 08:36:41;;;;;;;13.18;8.13;;;;;;;21.36;51.50;101703.22;4805867;29;20121;-84
2022/05/10 08:39:06;;;;;;;15.63;8.98;;;;;;;20.68;51.70;101602.84;4807316;29;20168;-90
2022/05/10 08:41:43;;;;;;;12.35;8.43;;;;;;;21.37;51.77;101709.31;4790171;29;20472;-85
2022/05/10 08:44:15;;;;;;;13.63;8.43;;;;;;;21.25;51.66;101666.63;4806759;29;20031;-85
2022/05/10 08:46:45;;;;;;;12.13;7.85;;;;;;;21.48;51.12;101699.44;4805508;29;20059;-85
2022/05/10 08:49:13;;;;;;;11.73;8.73;;;;;;;21.45;50.01;101675.25;4805806;29;20471;-85
2022/05/10 08:51:39;;;;;;;14.63;7.88;;;;;;;21.76;49.73;101699.41;4805792;29;20480;-86
2022/05/10 08:54:04;;;;;;;14.23;7.80;;;;;;;21.84;50.11;101699.50;4805964;29;20033;-85
2022/05/10 08:56:43;;;;;;;11.70;7.32;;;;;;;21.63;49.83;101641.94;4789703;29;20126;-85
2022/05/10 08:59:32;;;;;;;10.95;8.45;;;;;;;22.22;49.26;101689.66;4805475;29;20479;-86
2022/05/10 09:02:03;;;;;;;13.48;7.72;;;;;;;22.41;48.79;101681.59;4805532;29;20031;-85
2022/05/10 09:04:59;;;;;;;9.30;6.57;;;;;;;22.59;48.00;101678.94;4805925;29;20111;-82
2022/05/10 09:07:34;;;;;;;9.90;6.47;;;;;;;22.77;47.04;101692.06;4805615;29;20035;-84
2022/05/10 09:10:21;;;;;;;10.02;6.85;;;;;;;22.86;47.38;101685.91;4805551;29;20502;-83
2022/05/10 09:12:49;;;;;;;12.52;6.22;;;;;;;22.70;47.01;101646.25;4805646;29;20043;-85
2022/05/10 09:15:17;;;;;;;10.80;6.22;;;;;;;22.88;46.89;101683.94;4805344;29;20034;-85
2022/05/10 09:17:42;;;;;;;11.52;7.10;;;;;;;22.76;46.28;101651.75;4789214;29;20118;-83
2022/05/10 09:20:11;;;;;;;13.63;6.93;;;;;;;22.88;46.29;101647.06;4805130;29;20173;-86
2022/05/10 09:22:49;;;;;;;10.43;6.65;;;;;;;22.74;46.50;101606.31;4805517;29;20033;-84
2022/05/10 09:25:26;;;;;;;10.55;6.20;;;;;;;23.43;45.81;101668.53;4805437;29;20168;-78
2022/05/10 09:27:54;;;;;;;10.73;6.80;;;;;;;23.24;44.80;101639.81;4805279;29;20039;-77
2022/05/10 09:30:32;;;;;;;10.88;6.55;;;;;;;23.46;45.59;101673.47;4805239;29;20132;-78
2022/05/10 09:36:01;;;;;;;13.20;6.70;;;;;;;23.32;44.89;101663.56;4805373;29;20085;-78
2022/05/10 09:38:27;;;;;;;10.57;6.45;;;;;;;23.22;46.44;101646.22;4805331;29;20066;-79
2022/05/10 09:40:52;;;;;;;11.00;7.05;;;;;;;23.17;45.32;101625.63;4805251;29;20066;-80
2022/05/10 09:43:25;;;;;;;8.93;6.32;;;;;;;23.56;45.54;101673.34;4804937;29;20065;-81
2022/05/10 09:46:21;;;;;;;12.77;6.85;;;;;;;23.58;45.19;101660.00;4805370;29;20043;-80
2022/05/10 09:48:47;;;;;;;9.93;7.00;;;;;;;23.41;45.16;101662.59;4805132;29;20103;-79
2022/05/10 09:51:23;;;;;;;11.05;7.00;;;;;;;23.27;45.89;101663.19;4805057;29;20038;-79
2022/05/10 09:53:49;;;;;;;13.43;8.07;;;;;;;22.70;45.99;101606.75;4804912;29;20027;-78
2022/05/10 09:56:27;;;;;;;13.48;7.97;;;;;;;22.90;46.66;101645.91;4805008;29;20041;-81
2022/05/10 09:59:17;;;;;;;12.00;7.80;;;;;;;23.00;46.83;101656.31;4808187;29;20038;-79
2022/05/10 10:01:45;;;;;;;10.55;7.78;;;;;;;22.94;46.47;101637.72;4808297;29;20042;-78
2022/05/10 10:04:37;;;;;;;12.38;8.02;;;;;;;23.12;46.23;101643.72;4808101;29;20042;-78
2022/05/10 10:07:05;;;;;;;13.85;7.63;;;;;;;23.36;46.74;101646.44;4808539;29;20108;-80
2022/05/10 10:09:34;;;;;;;11.75;7.20;;;;;;;23.53;45.86;101625.41;4808256;29;20049;-79
2022/05/10 10:12:01;;;;;;;12.07;7.45;;;;;;;23.67;44.42;101616.88;4791732;29;20080;-80
2022/05/10 10:14:38;;;;;;;10.00;6.63;;;;;;;23.89;45.33;101634.72;4808041;29;20027;-80
2022/05/10 10:17:04;;;;;;;10.05;6.95;;;;;;;23.81;45.13;101583.75;4808172;29;20035;-80
2022/05/10 10:19:44;;;;;;;11.88;7.68;;;;;;;24.29;44.73;101636.50;4807816;29;20110;-78
2022/05/10 10:22:23;;;;;;;11.25;7.03;;;;;;;24.53;44.61;101633.03;4807745;29;20051;-76
2022/05/10 10:24:54;;;;;;;10.82;6.63;;;;;;;24.69;43.14;101626.06;4807901;29;20111;-75
2022/05/10 10:27:22;;;;;;;9.52;7.13;;;;;;;24.80;44.16;101626.53;4807764;29;20031;-78
2022/05/10 10:29:53;;;;;;;9.73;6.70;;;;;;;24.85;42.63;101623.34;4808258;29;20042;-80
2022/05/10 10:32:29;;;;;;;11.02;6.32;;;;;;;24.85;41.50;101620.72;4807893;29;20037;-79
2022/05/10 10:35:32;;;;;;;11.32;6.22;;;;;;;24.95;42.21;101623.16;4791399;29;20088;-79
2022/05/10 10:38:13;;;;;;;9.63;5.72;;;;;;;25.13;41.62;101613.19;4807363;29;20556;-79
2022/05/10 10:40:44;;;;;;;10.32;5.80;;;;;;;25.40;41.16;101619.84;4807712;29;20031;-78
2022/05/10 10:43:24;;;;;;;9.18;5.50;;;;;;;25.52;39.84;101617.59;4807662;29;20033;-77
2022/05/10 10:46:01;;;;;;;10.40;5.65;;;;;;;25.25;39.18;101603.88;4807621;29;20037;-80
2022/05/10 10:48:42;;;;;;;14.60;5.82;;;;;;;25.34;39.14;101616.06;4791360;29;20469;-84
2022/05/10 10:51:09;;;;;;;10.88;5.90;;;;;;;25.08;38.81;101579.38;4807539;29;20035;-83
2022/05/10 10:53:38;;;;;;;12.30;6.10;;;;;;;25.19;39.31;101603.78;4807335;29;20557;-86
2022/05/10 10:56:16;;;;;;;10.13;5.95;;;;;;;25.53;39.40;101611.31;4807621;29;20027;-84
2022/05/10 10:58:44;;;;;;;11.07;5.90;;;;;;;25.50;38.61;101606.38;4791098;29;20035;-84
2022/05/10 11:01:44;;;;;;;11.73;6.10;;;;;;;25.25;39.42;101577.44;4807302;29;20042;-86
2022/05/10 11:04:28;;;;;;;9.70;5.82;;;;;;;25.32;39.80;101604.84;4791442;29;20539;-86
2022/05/10 11:06:54;;;;;;;10.25;6.10;;;;;;;25.20;39.95;101606.22;4790937;29;20035;-85
2022/05/10 11:09:58;;;;;;;;;;;;;;;;;;;;;
2022/05/10 11:12:31;;;;;;;10.30;6.28;;;;;;;25.03;40.29;101594.09;4807053;29;20023;-83
2022/05/10 11:15:34;;;;;;;9.85;6.28;;;;;;;24.15;41.06;101436.59;4807358;29;20035;-86
2022/05/10 11:18:27;;;;;;;15.98;6.60;;;;;;;24.62;40.30;101478.03;4806329;29;20054;-86
2022/05/10 11:25:51;;;;;;;9.30;6.57;;;;;;;25.60;39.15;101577.88;4807200;29;20522;-87
2022/05/10 11:29:27;;;;;;;11.48;6.88;;;;;;;25.53;39.68;101575.13;4806627;29;20047;-85
2022/05/10 11:36:27;;;;;;;13.93;7.05;;;;;;;25.21;40.61;101565.59;4806068;29;20039;-87
2022/05/10 11:43:13;;;;;;;13.27;5.95;;;;;;;24.93;39.84;101430.44;4786949;29;20047;-88
2022/05/10 11:46:29;;;;;;;12.40;6.20;;;;;;;25.88;38.23;101552.56;4771555;30;20035;-83
2022/05/10 11:49:13;;;;;;;11.95;6.25;;;;;;;25.85;39.40;101552.06;4786467;30;20376;-82
2022/05/10 11:51:57;;;;;;;11.07;6.38;;;;;;;25.76;38.80;101519.56;4786312;30;20035;-79
2022/05/10 11:54:31;;;;;;;11.15;5.90;;;;;;;25.94;38.48;101540.41;4786257;30;20039;-82
2022/05/10 11:56:59;;;;;;;12.30;6.10;;;;;;;25.63;38.01;101528.09;4786265;30;20043;-81
2022/05/10 11:59:27;;;;;;;11.98;5.97;;;;;;;25.42;38.27;101531.38;4786418;30;20088;-82
2022/05/10 12:01:55;;;;;;;11.95;5.93;;;;;;;25.66;38.30;101545.41;4786163;30;20036;-81
2022/05/10 12:04:34;;;;;;;16.15;5.80;;;;;;;25.56;38.82;101510.44;4786151;30;20082;-81
2022/05/10 12:07:23;;;;;;;10.30;5.60;;;;;;;25.98;38.66;101542.53;4786069;30;20035;-84
2022/05/10 12:09:52;;;;;;;10.40;6.07;;;;;;;26.07;38.41;101540.63;4795347;29;20058;-82
2022/05/10 12:12:32;;;;;;;11.93;6.20;;;;;;;25.99;37.60;101530.94;4806107;29;20042;-82
2022/05/10 12:21:36;;;;;;;14.18;6.15;;;;;;;26.07;37.62;101524.75;4766919;30;20047;-85